createdAt,value
2023-10-27T00:02:10.575Z,6.90
2023-10-27T00:04:38.553Z,6.50
2023-10-27T00:07:06.451Z,5.15
2023-10-27T00:09:37.118Z,6.97
2023-10-27T00:12:05.273Z,6.60
2023-10-27T00:14:34.533Z,6.82
2023-10-27T00:17:02.630Z,7.00
2023-10-27T00:19:31.953Z,7.45
2023-10-27T00:21:59.893Z,6.35
2023-10-27T00:24:28.348Z,6.47
2023-10-27T00:26:56.422Z,6.38
2023-10-27T00:29:25.567Z,5.20
2023-10-27T00:31:53.440Z,6.90
2023-10-27T00:34:21.761Z,4.82
2023-10-27T00:36:51.331Z,5.30
2023-10-27T00:39:19.229Z,5.10
2023-10-27T00:41:47.180Z,5.83
2023-10-27T00:44:15.033Z,5.32
2023-10-27T00:46:45.218Z,5.03
2023-10-27T00:49:13.683Z,5.43
2023-10-27T00:51:42.530Z,5.25
2023-10-27T00:54:12.498Z,5.47
2023-10-27T00:56:41.326Z,6.00
2023-10-27T00:59:09.679Z,4.90
2023-10-27T01:01:38.466Z,5.10
2023-10-27T01:04:07.061Z,5.18
2023-10-27T01:06:35.096Z,4.77
2023-10-27T01:09:03.163Z,4.80
2023-10-27T01:11:32.392Z,5.25
2023-10-27T01:14:00.341Z,4.40
2023-10-27T01:16:28.393Z,5.03
2023-10-27T01:18:57.103Z,4.70
2023-10-27T01:21:25.008Z,4.70
2023-10-27T01:23:54.231Z,4.85
2023-10-27T01:26:22.191Z,4.38
2023-10-27T01:28:50.284Z,5.60
2023-10-27T01:31:18.992Z,4.23
2023-10-27T01:33:46.992Z,4.57
2023-10-27T01:36:15.170Z,4.85
2023-10-27T01:38:43.157Z,4.80
2023-10-27T01:41:12.567Z,4.80
2023-10-27T01:43:40.414Z,5.43
2023-10-27T01:46:08.621Z,5.40
2023-10-27T01:48:37.349Z,6.20
2023-10-27T01:51:05.705Z,6.18
2023-10-27T01:53:35.032Z,5.43
2023-10-27T01:56:03.198Z,6.17
2023-10-27T01:58:32.441Z,6.13
2023-10-27T02:01:00.389Z,6.05
2023-10-27T02:03:28.388Z,5.88
2023-10-27T02:05:56.271Z,6.38
2023-10-27T02:08:24.161Z,6.23
2023-10-27T02:10:52.232Z,5.93
2023-10-27T02:13:20.130Z,7.40
2023-10-27T02:15:49.412Z,6.30
2023-10-27T02:18:17.648Z,7.10
2023-10-27T02:20:45.582Z,5.47
2023-10-27T02:23:13.582Z,6.03
2023-10-27T02:25:41.445Z,6.82
2023-10-27T02:28:09.615Z,6.28
2023-10-27T02:30:37.580Z,5.82
2023-10-27T02:33:06.857Z,6.40
2023-10-27T02:35:34.894Z,4.90
2023-10-27T02:38:05.188Z,6.13
2023-10-27T02:40:33.196Z,5.78
2023-10-27T02:43:03.022Z,5.90
2023-10-27T02:45:31.768Z,4.80
2023-10-27T02:47:59.734Z,4.38
2023-10-27T02:50:29.029Z,4.85
2023-10-27T02:52:57.681Z,5.00
2023-10-27T02:55:26.442Z,5.47
2023-10-27T02:57:55.227Z,4.90
2023-10-27T03:00:24.344Z,6.15
2023-10-27T03:02:53.153Z,5.65
2023-10-27T03:05:22.560Z,5.30
2023-10-27T03:07:52.560Z,5.03
2023-10-27T03:10:21.823Z,5.43
2023-10-27T03:12:50.706Z,4.53
2023-10-27T03:15:19.454Z,4.40
2023-10-27T03:17:48.052Z,4.85
2023-10-27T03:20:17.611Z,4.65
2023-10-27T03:22:46.316Z,5.53
2023-10-27T03:25:16.315Z,4.70
2023-10-27T03:27:45.381Z,5.30
2023-10-27T03:30:15.315Z,5.18
2023-10-27T03:32:43.990Z,5.05
2023-10-27T03:35:12.688Z,4.20
2023-10-27T03:37:41.338Z,5.45
2023-10-27T03:40:11.631Z,4.68
2023-10-27T03:42:41.802Z,4.75
2023-10-27T03:45:10.901Z,6.05
2023-10-27T03:47:41.019Z,5.70
2023-10-27T03:50:12.337Z,5.43
2023-10-27T03:52:41.144Z,4.93
2023-10-27T03:55:12.857Z,4.70
2023-10-27T03:57:43.742Z,5.13
2023-10-27T04:00:14.859Z,5.60
2023-10-27T04:02:42.678Z,5.40
2023-10-27T04:05:10.914Z,5.30
2023-10-27T04:07:38.792Z,5.07
2023-10-27T04:10:08.140Z,4.82
2023-10-27T04:12:36.895Z,4.77
2023-10-27T04:15:09.617Z,4.78
2023-10-27T04:17:38.778Z,4.65
2023-10-27T04:20:09.018Z,4.80
2023-10-27T04:22:37.546Z,4.97
2023-10-27T04:25:06.802Z,5.43
2023-10-27T04:27:35.500Z,5.28
2023-10-27T04:30:05.455Z,5.18
2023-10-27T04:32:35.449Z,4.65
2023-10-27T04:35:04.195Z,4.65
2023-10-27T04:37:33.791Z,4.33
2023-10-27T04:40:02.825Z,4.47
2023-10-27T04:42:31.718Z,4.25
2023-10-27T04:45:00.525Z,4.45
2023-10-27T04:47:29.193Z,4.95
2023-10-27T04:49:58.560Z,4.60
2023-10-27T04:52:27.002Z,4.28
2023-10-27T04:54:56.660Z,4.45
2023-10-27T04:57:25.008Z,5.10
2023-10-27T04:59:53.779Z,4.60
2023-10-27T05:02:22.460Z,4.67
2023-10-27T05:04:51.278Z,4.80
2023-10-27T05:07:21.365Z,4.80
2023-10-27T05:09:51.442Z,4.90
2023-10-27T05:12:20.222Z,5.50
2023-10-27T05:14:48.915Z,4.60
2023-10-27T05:17:18.797Z,5.50
2023-10-27T05:19:47.638Z,5.55
2023-10-27T05:22:16.492Z,5.72
2023-10-27T05:24:46.496Z,5.43
2023-10-27T05:27:15.540Z,4.63
2023-10-27T05:29:44.501Z,5.88
2023-10-27T05:32:14.772Z,6.40
2023-10-27T05:34:43.576Z,6.45
2023-10-27T05:37:12.424Z,6.45
2023-10-27T05:39:40.898Z,5.00
2023-10-27T05:42:10.892Z,6.32
2023-10-27T05:44:41.418Z,5.22
2023-10-27T05:47:09.669Z,6.30
2023-10-27T05:49:38.525Z,5.47
2023-10-27T05:52:07.217Z,6.10
2023-10-27T05:54:35.893Z,5.80
2023-10-27T05:57:05.181Z,6.45
2023-10-27T05:59:35.167Z,5.75
2023-10-27T06:02:14.610Z,6.00
2023-10-27T06:04:43.966Z,6.33
2023-10-27T06:07:16.992Z,5.40
2023-10-27T06:09:46.845Z,6.30
2023-10-27T06:12:19.199Z,5.97
2023-10-27T06:14:52.321Z,5.32
2023-10-27T06:17:20.944Z,5.30
2023-10-27T06:20:01.456Z,4.97
2023-10-27T06:22:38.443Z,5.72
2023-10-27T06:25:07.897Z,6.10
2023-10-27T06:27:38.928Z,6.32
2023-10-27T06:30:10.169Z,5.90
2023-10-27T06:32:38.998Z,5.93
2023-10-27T06:35:07.682Z,6.32
2023-10-27T06:37:36.582Z,6.15
2023-10-27T06:40:06.358Z,5.95
2023-10-27T06:42:35.468Z,6.73
2023-10-27T06:45:05.432Z,6.32
2023-10-27T06:47:36.020Z,7.70
2023-10-27T06:50:05.486Z,6.57
2023-10-27T06:52:35.755Z,6.38
2023-10-27T06:55:05.347Z,6.40
2023-10-27T06:57:34.993Z,6.30
2023-10-27T07:00:03.614Z,6.88
2023-10-27T07:02:45.449Z,7.05
2023-10-27T07:05:23.441Z,6.35
2023-10-27T07:07:52.353Z,6.13
2023-10-27T07:10:21.775Z,6.07
2023-10-27T07:12:50.393Z,6.45
2023-10-27T07:15:20.924Z,6.65
2023-10-27T07:17:49.270Z,6.18
2023-10-27T07:20:18.584Z,6.40
2023-10-27T07:22:48.060Z,7.25
2023-10-27T07:25:16.128Z,6.35
2023-10-27T07:27:45.648Z,6.07
2023-10-27T07:30:15.235Z,6.15
2023-10-27T07:32:43.691Z,6.40
2023-10-27T07:35:12.416Z,6.40
2023-10-27T07:37:41.633Z,7.43
2023-10-27T07:40:12.597Z,7.15
2023-10-27T07:42:41.210Z,7.40
2023-10-27T07:45:10.466Z,7.10
2023-10-27T07:47:39.081Z,7.15
2023-10-27T07:50:08.173Z,6.72
2023-10-27T07:52:36.936Z,7.00
2023-10-27T07:55:07.983Z,6.63
2023-10-27T07:57:38.053Z,7.00
2023-10-27T08:00:11.329Z,7.03
2023-10-27T08:02:40.524Z,7.13
2023-10-27T08:05:09.294Z,6.65
2023-10-27T08:07:38.242Z,6.78
2023-10-27T08:10:09.117Z,7.30
2023-10-27T08:12:43.346Z,7.28
2023-10-27T08:15:12.052Z,7.85
2023-10-27T08:17:40.266Z,7.63
2023-10-27T08:20:09.635Z,7.30
2023-10-27T08:22:38.521Z,7.27
2023-10-27T08:25:07.461Z,7.70
2023-10-27T08:27:36.178Z,8.55
2023-10-27T08:30:07.159Z,8.32
2023-10-27T08:32:35.900Z,8.77
2023-10-27T08:35:04.154Z,7.40
2023-10-27T08:37:32.074Z,7.68
2023-10-27T08:39:59.979Z,7.75
2023-10-27T08:42:29.072Z,7.97
2023-10-27T08:44:58.634Z,7.18
2023-10-27T08:47:32.112Z,7.73
2023-10-27T08:50:02.284Z,7.20
2023-10-27T08:52:30.550Z,6.32
2023-10-27T08:55:00.617Z,7.22
2023-10-27T08:57:27.628Z,6.80
2023-10-27T08:59:56.856Z,6.63
2023-10-27T09:02:37.077Z,6.50
2023-10-27T09:05:08.192Z,6.68
2023-10-27T09:07:36.604Z,7.00
2023-10-27T09:10:08.712Z,7.97
2023-10-27T09:12:39.066Z,6.90
2023-10-27T09:15:09.739Z,7.43
2023-10-27T09:17:56.141Z,7.53
2023-10-27T09:20:26.927Z,7.03
2023-10-27T09:22:59.985Z,7.93
2023-10-27T09:25:33.167Z,8.20
2023-10-27T09:28:03.550Z,8.38
2023-10-27T09:30:34.856Z,6.85
2023-10-27T09:33:15.733Z,7.43
2023-10-27T09:35:44.676Z,7.60
2023-10-27T09:38:14.465Z,7.17
2023-10-27T09:40:43.828Z,6.90
2023-10-27T09:43:18.793Z,6.97
2023-10-27T09:45:54.396Z,7.50
2023-10-27T09:48:29.138Z,6.78
2023-10-27T09:51:02.579Z,7.97
2023-10-27T09:53:31.769Z,8.52
2023-10-27T09:56:01.484Z,7.70
2023-10-27T09:58:32.828Z,8.20
2023-10-27T10:01:03.184Z,7.25
2023-10-27T10:03:34.036Z,9.50
2023-10-27T10:06:11.492Z,8.20
2023-10-27T10:08:40.159Z,7.57
2023-10-27T10:11:16.126Z,7.15
2023-10-27T10:13:46.334Z,6.95
2023-10-27T10:16:16.229Z,6.93
2023-10-27T10:18:56.616Z,7.38
2023-10-27T10:21:44.438Z,7.45
2023-10-27T10:24:13.048Z,6.90
2023-10-27T10:27:12.159Z,7.13
2023-10-27T10:29:41.733Z,7.73
2023-10-27T10:32:35.634Z,7.45
2023-10-27T10:35:28.883Z,6.90
2023-10-27T10:37:57.419Z,7.25
2023-10-27T10:40:29.385Z,8.13
2023-10-27T10:43:25.219Z,7.40
2023-10-27T10:45:56.356Z,8.25
2023-10-27T10:48:27.580Z,7.90
2023-10-27T10:51:00.512Z,8.68
2023-10-27T10:53:28.545Z,7.90
2023-10-27T10:56:02.118Z,8.70
2023-10-27T10:58:31.982Z,8.32
2023-10-27T11:01:02.377Z,8.90
2023-10-27T11:03:33.300Z,9.27
2023-10-27T11:06:06.969Z,8.60
2023-10-27T11:08:39.122Z,8.47
2023-10-27T11:11:09.295Z,8.27
2023-10-27T11:13:43.030Z,9.05
2023-10-27T11:16:18.971Z,8.20
2023-10-27T11:18:49.353Z,8.73
2023-10-27T11:21:20.406Z,8.83
2023-10-27T11:23:50.167Z,8.43
2023-10-27T11:26:20.969Z,8.40
2023-10-27T11:28:50.304Z,8.85
2023-10-27T11:31:28.758Z,8.48
2023-10-27T11:33:58.489Z,8.27
2023-10-27T11:36:29.449Z,8.30
2023-10-27T11:38:58.333Z,8.05
2023-10-27T11:41:26.803Z,7.80
2023-10-27T11:43:55.684Z,8.10
2023-10-27T11:46:24.066Z,7.87
2023-10-27T11:48:52.681Z,9.23
2023-10-27T11:51:21.008Z,7.68
2023-10-27T11:53:51.371Z,8.00
2023-10-27T11:56:20.388Z,7.72
2023-10-27T11:58:48.690Z,8.67
2023-10-27T12:01:17.169Z,8.43
2023-10-27T12:03:45.203Z,8.02
2023-10-27T12:06:13.694Z,7.53
2023-10-27T12:08:42.205Z,7.60
2023-10-27T12:11:11.655Z,8.23
2023-10-27T12:13:40.314Z,7.47
2023-10-27T12:16:09.335Z,8.32
2023-10-27T12:18:37.964Z,8.13
2023-10-27T12:21:07.089Z,8.18
2023-10-27T12:23:35.176Z,7.80
2023-10-27T12:26:04.895Z,7.93
2023-10-27T12:28:34.221Z,7.35
2023-10-27T12:31:03.010Z,9.05
2023-10-27T12:33:31.575Z,7.53
2023-10-27T12:36:07.345Z,8.23
2023-10-27T12:38:36.445Z,7.28
2023-10-27T12:41:06.159Z,7.60
2023-10-27T12:43:36.449Z,7.82
2023-10-27T12:46:06.012Z,8.40
2023-10-27T12:48:35.955Z,7.90
2023-10-27T12:51:04.924Z,8.02
2023-10-27T12:53:33.258Z,7.00
2023-10-27T12:56:01.745Z,7.50
2023-10-27T12:58:30.501Z,6.50
2023-10-27T13:01:02.688Z,6.83
2023-10-27T13:03:32.249Z,4.70
2023-10-27T13:06:00.456Z,5.63
2023-10-27T13:08:28.971Z,6.05
2023-10-27T13:10:58.068Z,5.55
2023-10-27T13:13:26.694Z,5.23
2023-10-27T13:15:55.353Z,4.53
2023-10-27T13:18:26.714Z,4.57
2023-10-27T13:20:55.789Z,4.18
2023-10-27T13:23:24.495Z,4.35
2023-10-27T13:26:03.762Z,3.50
2023-10-27T13:28:32.451Z,3.72
2023-10-27T13:31:01.341Z,3.92
2023-10-27T13:33:31.617Z,3.17
2023-10-27T13:36:03.079Z,3.97
2023-10-27T13:38:30.985Z,3.97
2023-10-27T13:40:59.346Z,3.60
2023-10-27T13:43:28.872Z,4.15
2023-10-27T13:46:01.643Z,4.13
2023-10-27T13:48:34.733Z,4.50
2023-10-27T13:51:10.581Z,3.80
2023-10-27T13:53:39.335Z,3.75
2023-10-27T13:56:13.891Z,3.90
2023-10-27T13:58:42.974Z,3.45
2023-10-27T14:01:11.731Z,19.95
2023-10-27T14:03:41.920Z,5.20
2023-10-27T14:06:13.420Z,3.70
2023-10-27T14:08:42.625Z,3.60
2023-10-27T14:11:11.405Z,4.05
2023-10-27T14:13:39.940Z,3.60
2023-10-27T14:16:12.129Z,3.43
2023-10-27T14:18:42.371Z,3.30
2023-10-27T14:21:11.099Z,3.38
2023-10-27T14:23:39.921Z,3.90
2023-10-27T14:26:12.694Z,3.10
2023-10-27T14:28:43.320Z,2.50
2023-10-27T14:31:12.373Z,2.90
2023-10-27T14:33:43.037Z,2.20
2023-10-27T14:36:14.354Z,2.00
2023-10-27T14:38:43.389Z,2.20
2023-10-27T14:41:12.315Z,2.60
2023-10-27T14:43:41.068Z,2.10
2023-10-27T14:46:12.702Z,2.03
2023-10-27T14:48:42.251Z,1.80
2023-10-27T14:51:11.345Z,1.80
2023-10-27T14:53:39.367Z,2.50
2023-10-27T14:56:09.887Z,1.92
2023-10-27T14:58:38.294Z,5.10
2023-10-27T15:01:07.850Z,4.38
2023-10-27T15:03:38.509Z,3.25
2023-10-27T15:06:10.526Z,2.53
2023-10-27T15:08:39.631Z,2.60
2023-10-27T15:11:08.926Z,2.38
2023-10-27T15:13:37.987Z,2.60
2023-10-27T15:16:09.111Z,2.58
2023-10-27T15:18:37.510Z,3.70
2023-10-27T15:21:07.476Z,3.58
2023-10-27T15:23:38.106Z,3.60
2023-10-27T15:26:07.998Z,8.88
2023-10-27T15:28:36.900Z,11.70
2023-10-27T15:31:07.441Z,3.70
2023-10-27T15:33:39.700Z,4.32
2023-10-27T15:36:10.500Z,3.35
2023-10-27T15:38:42.173Z,3.30
2023-10-27T15:41:25.672Z,2.38
2023-10-27T15:43:54.849Z,3.23
2023-10-27T15:46:23.490Z,3.00
2023-10-27T15:48:52.466Z,2.80
2023-10-27T15:51:22.037Z,2.55
2023-10-27T15:53:52.042Z,2.65
2023-10-27T15:56:25.484Z,10.03
2023-10-27T15:58:54.129Z,4.82
2023-10-27T16:01:22.433Z,3.97
2023-10-27T16:03:51.158Z,4.05
2023-10-27T16:06:20.056Z,3.70
2023-10-27T16:08:48.922Z,3.60
2023-10-27T16:11:18.612Z,3.95
2023-10-27T16:13:47.660Z,3.92
2023-10-27T16:16:19.033Z,3.65
2023-10-27T16:18:48.601Z,3.78
2023-10-27T16:21:17.270Z,3.50
2023-10-27T16:23:45.869Z,3.97
2023-10-27T16:26:15.307Z,4.00
2023-10-27T16:28:44.639Z,3.95
2023-10-27T16:31:12.875Z,3.97
2023-10-27T16:33:41.402Z,3.53
2023-10-27T16:36:13.082Z,3.85
2023-10-27T16:38:41.053Z,4.13
2023-10-27T16:41:09.654Z,4.00
2023-10-27T16:43:41.366Z,4.07
2023-10-27T16:46:11.244Z,4.60
2023-10-27T16:48:40.004Z,4.60
2023-10-27T16:51:10.847Z,4.53
2023-10-27T16:53:40.424Z,4.32
2023-10-27T16:56:10.294Z,4.95
2023-10-27T16:58:39.734Z,5.00
2023-10-27T17:01:08.604Z,5.20
2023-10-27T17:03:38.368Z,4.20
2023-10-27T17:06:08.249Z,4.50
2023-10-27T17:08:36.469Z,4.50
2023-10-27T17:11:07.028Z,5.17
2023-10-27T17:13:37.715Z,5.18
2023-10-27T17:16:09.967Z,5.05
2023-10-27T17:18:41.822Z,5.35
2023-10-27T17:21:14.284Z,5.78
2023-10-27T17:23:43.437Z,4.67
2023-10-27T17:26:12.267Z,5.75
2023-10-27T17:28:41.250Z,5.32
2023-10-27T17:31:11.062Z,5.75
2023-10-27T17:33:41.377Z,5.40
2023-10-27T17:36:11.676Z,6.30
2023-10-27T17:38:40.460Z,5.40
2023-10-27T17:41:10.081Z,5.18
2023-10-27T17:43:39.765Z,5.50
2023-10-27T17:46:09.074Z,4.55
2023-10-27T17:48:37.553Z,4.80
2023-10-27T17:51:09.307Z,5.32
2023-10-27T17:53:39.878Z,5.20
2023-10-27T17:56:09.629Z,4.82
2023-10-27T17:58:38.712Z,4.25
2023-10-27T18:01:08.941Z,4.73
2023-10-27T18:03:38.636Z,3.53
2023-10-27T18:06:13.403Z,3.85
2023-10-27T18:08:42.422Z,3.80
2023-10-27T18:11:11.200Z,3.83
2023-10-27T18:13:40.374Z,3.60
2023-10-27T18:16:09.497Z,4.25
2023-10-27T18:18:37.984Z,3.60
2023-10-27T18:21:11.991Z,3.85
2023-10-27T18:23:40.328Z,4.25
2023-10-27T18:26:15.443Z,4.47
2023-10-27T18:28:43.533Z,3.75
2023-10-27T18:31:11.650Z,4.10
2023-10-27T18:33:39.873Z,4.15
2023-10-27T18:36:14.792Z,4.22
2023-10-27T18:38:44.638Z,4.77
2023-10-27T18:41:12.933Z,4.63
2023-10-27T18:43:44.967Z,4.35
2023-10-27T18:46:15.166Z,4.57
2023-10-27T18:48:44.499Z,4.60
2023-10-27T18:51:14.925Z,4.30
2023-10-27T18:53:44.085Z,4.70
2023-10-27T18:56:15.078Z,4.53
2023-10-27T18:58:45.526Z,4.43
2023-10-27T19:01:15.566Z,4.75
2023-10-27T19:03:48.290Z,4.90
2023-10-27T19:06:21.787Z,4.82
2023-10-27T19:08:50.905Z,4.63
2023-10-27T19:11:21.779Z,5.03
2023-10-27T19:13:50.326Z,5.50
2023-10-27T19:16:19.169Z,5.13
2023-10-27T19:18:49.764Z,5.25
2023-10-27T19:21:20.126Z,5.28
2023-10-27T19:23:52.262Z,5.70
2023-10-27T19:26:22.666Z,4.93
2023-10-27T19:28:53.340Z,5.03
2023-10-27T19:31:23.580Z,4.72
2023-10-27T19:33:52.535Z,4.93
2023-10-27T19:36:24.611Z,4.90
2023-10-27T19:38:54.784Z,4.72
2023-10-27T19:41:26.819Z,5.30
2023-10-27T19:43:56.871Z,5.00
2023-10-27T19:46:27.472Z,5.18
2023-10-27T19:49:00.811Z,4.78
2023-10-27T19:51:32.243Z,5.35
2023-10-27T19:54:01.901Z,4.80
2023-10-27T19:56:31.202Z,4.90
2023-10-27T19:59:01.489Z,4.00
2023-10-27T20:01:32.006Z,4.30
2023-10-27T20:04:03.367Z,4.55
2023-10-27T20:06:34.672Z,4.00
2023-10-27T20:09:07.345Z,3.70
2023-10-27T20:11:38.292Z,3.13
2023-10-27T20:14:08.813Z,3.70
2023-10-27T20:16:40.974Z,3.88
2023-10-27T20:19:10.796Z,3.93
2023-10-27T20:21:44.122Z,3.17
2023-10-27T20:24:15.015Z,3.28
2023-10-27T20:26:45.147Z,3.72
2023-10-27T20:29:17.624Z,2.97
2023-10-27T20:31:48.236Z,3.10
2023-10-27T20:34:17.595Z,3.35
2023-10-27T20:36:47.568Z,3.13
2023-10-27T20:39:16.496Z,3.10
2023-10-27T20:41:45.467Z,2.97
2023-10-27T20:44:14.444Z,2.80
2023-10-27T20:46:43.377Z,3.10
2023-10-27T20:49:12.203Z,2.92
2023-10-27T20:51:41.084Z,3.05
2023-10-27T20:54:11.289Z,2.67
2023-10-27T20:56:40.920Z,3.30
2023-10-27T20:59:09.872Z,2.85
2023-10-27T21:01:38.753Z,2.95
2023-10-27T21:04:10.358Z,3.15
2023-10-27T21:06:40.358Z,2.95
2023-10-27T21:09:10.644Z,2.90
2023-10-27T21:11:39.651Z,2.17
2023-10-27T21:14:08.963Z,2.47
2023-10-27T21:16:37.751Z,2.38
2023-10-27T21:19:06.834Z,1.67
2023-10-27T21:21:35.748Z,2.10
2023-10-27T21:24:04.539Z,2.10
2023-10-27T21:26:34.605Z,1.80
2023-10-27T21:29:03.291Z,1.70
2023-10-27T21:31:32.084Z,1.60
2023-10-27T21:34:00.789Z,1.60
2023-10-27T21:36:30.054Z,1.55
2023-10-27T21:38:59.131Z,1.08
2023-10-27T21:41:28.260Z,1.42
2023-10-27T21:43:58.928Z,1.25
2023-10-27T21:46:28.188Z,1.63
2023-10-27T21:48:57.071Z,1.30
2023-10-27T21:51:25.740Z,1.23
2023-10-27T21:53:54.503Z,1.50
2023-10-27T21:56:23.223Z,1.40
2023-10-27T21:58:52.054Z,1.50
2023-10-27T22:01:24.333Z,1.42
2023-10-27T22:03:58.720Z,1.13
2023-10-27T22:06:27.424Z,0.90
2023-10-27T22:08:56.004Z,1.08
2023-10-27T22:11:24.122Z,0.77
2023-10-27T22:13:52.257Z,0.80
2023-10-27T22:16:22.352Z,0.82
2023-10-27T22:18:51.178Z,1.17
2023-10-27T22:21:19.871Z,1.20
2023-10-27T22:23:48.502Z,1.10
2023-10-27T22:26:18.170Z,1.02
2023-10-27T22:28:47.158Z,1.30
2023-10-27T22:31:15.781Z,1.30
2023-10-27T22:33:45.761Z,1.02
2023-10-27T22:36:15.049Z,1.63
2023-10-27T22:38:43.511Z,1.60
2023-10-27T22:41:12.923Z,1.13
2023-10-27T22:43:42.806Z,1.40
2023-10-27T22:46:11.093Z,1.55
2023-10-27T22:48:39.559Z,1.77
2023-10-27T22:51:11.015Z,1.80
2023-10-27T22:53:40.660Z,1.88
2023-10-27T22:56:10.184Z,1.95
2023-10-27T22:58:38.424Z,1.85
2023-10-27T23:01:11.202Z,2.57
2023-10-27T23:03:40.401Z,2.92
2023-10-27T23:06:12.560Z,6.07
2023-10-27T23:08:41.946Z,5.70
2023-10-27T23:11:11.044Z,5.63
2023-10-27T23:13:40.665Z,5.03
2023-10-27T23:16:10.770Z,4.70
2023-10-27T23:18:42.564Z,5.07
2023-10-27T23:21:14.299Z,5.05
2023-10-27T23:23:44.687Z,4.90
2023-10-27T23:26:13.695Z,5.87
2023-10-27T23:28:42.972Z,5.97
2023-10-27T23:31:13.526Z,6.63
2023-10-27T23:33:42.371Z,6.35
2023-10-27T23:36:17.860Z,5.82
2023-10-27T23:38:47.547Z,5.03
2023-10-27T23:41:16.233Z,5.30
2023-10-27T23:43:45.115Z,5.05
2023-10-27T23:46:15.507Z,4.85
2023-10-27T23:48:44.815Z,4.57
2023-10-27T23:51:14.878Z,4.77
2023-10-27T23:53:43.514Z,4.63
2023-10-27T23:56:12.943Z,4.80
2023-10-27T23:58:41.274Z,4.50
